sensor_id;sensor_type;location;lat;lon;timestamp;pressure;altitude;pressure_sealevel;temperature;humidity
75933;BME280;64803;52.356;5.310;2023-01-04T00:02:09;102015.22;;;8.28;100.00
75933;BME280;64803;52.356;5.310;2023-01-04T00:04:35;102051.47;;;8.51;100.00
75933;BME280;64803;52.356;5.310;2023-01-04T00:07:01;102039.09;;;8.50;100.00
75933;BME280;64803;52.356;5.310;2023-01-04T00:09:27;102038.09;;;8.51;100.00
75933;BME280;64803;52.356;5.310;2023-01-04T00:11:53;102035.69;;;8.48;100.00
75933;BME280;64803;52.356;5.310;2023-01-04T00:14:19;102025.00;;;8.48;100.00
75933;BME280;64803;52.356;5.310;2023-01-04T00:16:45;102012.59;;;8.47;100.00
75933;BME280;64803;52.356;5.310;2023-01-04T00:19:11;102005.28;;;8.49;100.00
75933;BME280;64803;52.356;5.310;2023-01-04T00:21:37;101985.94;;;8.36;100.00
75933;BME280;64803;52.356;5.310;2023-01-04T00:24:04;101997.38;;;8.47;100.00
75933;BME280;64803;52.356;5.310;2023-01-04T00:26:31;101987.50;;;8.48;100.00
75933;BME280;64803;52.356;5.310;2023-01-04T00:29:05;101980.06;;;8.51;100.00
75933;BME280;64803;52.356;5.310;2023-01-04T00:31:32;101959.63;;;8.50;100.00
75933;BME280;64803;52.356;5.310;2023-01-04T00:34:01;101974.56;;;8.53;100.00
75933;BME280;64803;52.356;5.310;2023-01-04T00:36:28;101973.84;;;8.51;100.00
75933;BME280;64803;52.356;5.310;2023-01-04T00:38:56;101956.25;;;8.48;100.00
75933;BME280;64803;52.356;5.310;2023-01-04T00:43:59;101947.78;;;8.53;100.00
75933;BME280;64803;52.356;5.310;2023-01-04T00:46:28;101945.13;;;8.53;100.00
75933;BME280;64803;52.356;5.310;2023-01-04T00:48:54;101934.16;;;8.56;100.00
75933;BME280;64803;52.356;5.310;2023-01-04T00:51:20;101929.78;;;8.55;100.00
75933;BME280;64803;52.356;5.310;2023-01-04T00:53:46;101926.94;;;8.56;100.00
75933;BME280;64803;52.356;5.310;2023-01-04T00:56:12;101922.44;;;8.57;100.00
75933;BME280;64803;52.356;5.310;2023-01-04T00:58:38;101927.09;;;8.55;100.00
75933;BME280;64803;52.356;5.310;2023-01-04T01:01:05;101918.09;;;8.56;100.00
75933;BME280;64803;52.356;5.310;2023-01-04T01:03:32;101898.34;;;8.57;100.00
75933;BME280;64803;52.356;5.310;2023-01-04T01:06:04;101904.81;;;8.54;100.00
75933;BME280;64803;52.356;5.310;2023-01-04T01:08:31;101895.97;;;8.63;100.00
75933;BME280;64803;52.356;5.310;2023-01-04T01:11:04;101891.75;;;8.61;100.00
75933;BME280;64803;52.356;5.310;2023-01-04T01:13:30;101883.72;;;8.61;100.00
75933;BME280;64803;52.356;5.310;2023-01-04T01:16:11;101882.72;;;8.62;100.00
75933;BME280;64803;52.356;5.310;2023-01-04T01:18:40;101882.72;;;8.62;100.00
75933;BME280;64803;52.356;5.310;2023-01-04T01:21:16;101877.06;;;8.65;100.00
75933;BME280;64803;52.356;5.310;2023-01-04T01:23:43;101856.91;;;8.70;100.00
75933;BME280;64803;52.356;5.310;2023-01-04T01:26:12;101878.34;;;8.70;100.00
75933;BME280;64803;52.356;5.310;2023-01-04T01:28:38;101871.72;;;8.74;100.00
75933;BME280;64803;52.356;5.310;2023-01-04T01:31:06;101868.91;;;8.76;100.00
75933;BME280;64803;52.356;5.310;2023-01-04T01:33:34;101817.63;;;8.52;100.00
75933;BME280;64803;52.356;5.310;2023-01-04T01:36:00;101851.28;;;8.83;100.00
75933;BME280;64803;52.356;5.310;2023-01-04T01:38:27;101852.84;;;8.85;100.00
75933;BME280;64803;52.356;5.310;2023-01-04T01:40:53;101853.97;;;8.83;100.00
75933;BME280;64803;52.356;5.310;2023-01-04T01:43:21;101830.28;;;8.78;100.00
75933;BME280;64803;52.356;5.310;2023-01-04T01:45:57;101843.50;;;8.99;100.00
75933;BME280;64803;52.356;5.310;2023-01-04T01:48:27;101844.06;;;9.02;100.00
75933;BME280;64803;52.356;5.310;2023-01-04T01:51:02;101830.81;;;9.01;100.00
75933;BME280;64803;52.356;5.310;2023-01-04T01:53:31;101832.34;;;9.13;100.00
75933;BME280;64803;52.356;5.310;2023-01-04T01:55:59;101842.22;;;9.13;100.00
75933;BME280;64803;52.356;5.310;2023-01-04T01:58:33;101821.75;;;9.21;100.00
75933;BME280;64803;52.356;5.310;2023-01-04T02:01:00;101825.41;;;9.20;100.00
75933;BME280;64803;52.356;5.310;2023-01-04T02:03:31;101832.31;;;9.23;100.00
75933;BME280;64803;52.356;5.310;2023-01-04T02:06:01;101826.13;;;9.22;100.00
75933;BME280;64803;52.356;5.310;2023-01-04T02:08:29;101827.91;;;9.31;100.00
75933;BME280;64803;52.356;5.310;2023-01-04T02:10:55;101812.13;;;9.28;100.00
75933;BME280;64803;52.356;5.310;2023-01-04T02:13:27;101807.88;;;9.35;100.00
75933;BME280;64803;52.356;5.310;2023-01-04T02:25:23;101790.59;;;9.47;100.00
75933;BME280;64803;52.356;5.310;2023-01-04T02:27:57;101807.94;;;9.53;100.00
75933;BME280;64803;52.356;5.310;2023-01-04T02:33:36;101803.53;;;9.61;100.00
75933;BME280;64803;52.356;5.310;2023-01-04T02:44:24;101793.31;;;9.74;100.00
75933;BME280;64803;52.356;5.310;2023-01-04T02:47:05;101774.38;;;9.76;100.00
75933;BME280;64803;52.356;5.310;2023-01-04T02:49:33;101793.00;;;9.77;100.00
75933;BME280;64803;52.356;5.310;2023-01-04T02:52:18;101783.41;;;9.75;100.00
75933;BME280;64803;52.356;5.310;2023-01-04T02:54:45;101791.00;;;9.79;100.00
75933;BME280;64803;52.356;5.310;2023-01-04T02:57:46;101787.31;;;9.80;100.00
75933;BME280;64803;52.356;5.310;2023-01-04T03:00:27;101775.38;;;9.92;100.00
75933;BME280;64803;52.356;5.310;2023-01-04T03:06:01;101775.50;;;10.00;100.00
75933;BME280;64803;52.356;5.310;2023-01-04T03:11:23;101772.50;;;10.03;100.00
75933;BME280;64803;52.356;5.310;2023-01-04T03:14:19;101761.22;;;10.00;100.00
75933;BME280;64803;52.356;5.310;2023-01-04T03:16:47;101765.56;;;10.10;100.00
75933;BME280;64803;52.356;5.310;2023-01-04T03:19:15;101760.56;;;10.15;100.00
75933;BME280;64803;52.356;5.310;2023-01-04T03:22:02;101761.97;;;10.19;100.00
75933;BME280;64803;52.356;5.310;2023-01-04T03:24:31;101765.19;;;10.23;100.00
75933;BME280;64803;52.356;5.310;2023-01-04T03:27:18;101761.97;;;10.19;100.00
75933;BME280;64803;52.356;5.310;2023-01-04T03:30:07;101758.59;;;10.17;100.00
75933;BME280;64803;52.356;5.310;2023-01-04T03:33:00;101740.78;;;10.16;100.00
75933;BME280;64803;52.356;5.310;2023-01-04T03:35:59;101773.69;;;10.18;100.00
75933;BME280;64803;52.356;5.310;2023-01-04T03:38:38;101758.22;;;10.12;100.00
75933;BME280;64803;52.356;5.310;2023-01-04T03:41:48;101753.59;;;10.23;100.00
75933;BME280;64803;52.356;5.310;2023-01-04T03:44:48;101748.38;;;10.21;100.00
75933;BME280;64803;52.356;5.310;2023-01-04T03:47:51;101747.00;;;10.17;100.00
75933;BME280;64803;52.356;5.310;2023-01-04T03:50:51;101743.03;;;10.21;100.00
75933;BME280;64803;52.356;5.310;2023-01-04T03:53:20;101727.44;;;10.25;100.00
75933;BME280;64803;52.356;5.310;2023-01-04T03:55:47;101736.47;;;10.23;100.00
75933;BME280;64803;52.356;5.310;2023-01-04T03:58:15;101735.50;;;10.25;100.00
75933;BME280;64803;52.356;5.310;2023-01-04T04:00:44;101707.66;;;10.26;100.00
75933;BME280;64803;52.356;5.310;2023-01-04T04:03:11;101721.75;;;10.28;100.00
75933;BME280;64803;52.356;5.310;2023-01-04T04:05:39;101711.78;;;10.38;100.00
75933;BME280;64803;52.356;5.310;2023-01-04T04:08:24;101718.16;;;10.37;100.00
75933;BME280;64803;52.356;5.310;2023-01-04T04:10:56;101721.00;;;10.35;100.00
75933;BME280;64803;52.356;5.310;2023-01-04T04:13:23;101724.22;;;10.39;100.00
75933;BME280;64803;52.356;5.310;2023-01-04T04:15:52;101705.03;;;10.34;100.00
75933;BME280;64803;52.356;5.310;2023-01-04T04:18:18;101702.22;;;10.35;100.00
75933;BME280;64803;52.356;5.310;2023-01-04T04:20:44;101699.34;;;10.37;100.00
75933;BME280;64803;52.356;5.310;2023-01-04T04:23:10;101698.34;;;10.38;100.00
75933;BME280;64803;52.356;5.310;2023-01-04T04:25:36;101694.53;;;10.40;100.00
75933;BME280;64803;52.356;5.310;2023-01-04T04:28:02;101689.47;;;10.37;100.00
75933;BME280;64803;52.356;5.310;2023-01-04T04:30:28;101684.63;;;10.41;100.00
75933;BME280;64803;52.356;5.310;2023-01-04T04:32:54;101673.56;;;10.44;100.00
75933;BME280;64803;52.356;5.310;2023-01-04T04:35:20;101672.94;;;10.50;100.00
75933;BME280;64803;52.356;5.310;2023-01-04T04:37:46;101661.56;;;10.56;100.00
75933;BME280;64803;52.356;5.310;2023-01-04T04:40:13;101668.00;;;10.63;100.00
75933;BME280;64803;52.356;5.310;2023-01-04T04:42:57;101666.81;;;10.65;100.00
75933;BME280;64803;52.356;5.310;2023-01-04T04:45:23;101671.38;;;10.65;100.00
75933;BME280;64803;52.356;5.310;2023-01-04T04:47:49;101651.22;;;10.69;100.00
75933;BME280;64803;52.356;5.310;2023-01-04T04:50:15;101672.41;;;10.72;100.00
75933;BME280;64803;52.356;5.310;2023-01-04T04:52:41;101657.13;;;10.72;100.00
75933;BME280;64803;52.356;5.310;2023-01-04T04:55:07;101641.84;;;10.73;100.00
75933;BME280;64803;52.356;5.310;2023-01-04T04:57:33;101657.03;;;10.82;100.00
75933;BME280;64803;52.356;5.310;2023-01-04T04:59:59;101660.72;;;10.81;100.00
75933;BME280;64803;52.356;5.310;2023-01-04T05:02:25;101661.72;;;10.80;100.00
75933;BME280;64803;52.356;5.310;2023-01-04T05:04:51;101642.00;;;10.71;100.00
75933;BME280;64803;52.356;5.310;2023-01-04T05:07:17;101641.22;;;10.79;100.00
75933;BME280;64803;52.356;5.310;2023-01-04T05:09:43;101646.38;;;10.72;100.00
75933;BME280;64803;52.356;5.310;2023-01-04T05:12:11;101658.31;;;10.70;100.00
75933;BME280;64803;52.356;5.310;2023-01-04T05:14:56;101639.53;;;10.78;100.00
75933;BME280;64803;52.356;5.310;2023-01-04T05:17:22;101644.53;;;10.73;100.00
75933;BME280;64803;52.356;5.310;2023-01-04T05:19:48;101643.56;;;10.74;100.00
75933;BME280;64803;52.356;5.310;2023-01-04T05:22:14;101619.06;;;10.85;100.00
75933;BME280;64803;52.356;5.310;2023-01-04T05:24:40;101623.09;;;10.81;100.00
75933;BME280;64803;52.356;5.310;2023-01-04T05:27:05;101624.59;;;10.75;100.00
75933;BME280;64803;52.356;5.310;2023-01-04T05:29:31;101621.75;;;10.77;100.00
75933;BME280;64803;52.356;5.310;2023-01-04T05:32:16;101620.56;;;10.79;100.00
75933;BME280;64803;52.356;5.310;2023-01-04T05:34:42;101601.13;;;10.85;100.00
75933;BME280;64803;52.356;5.310;2023-01-04T05:37:08;101599.59;;;10.83;100.00
75933;BME280;64803;52.356;5.310;2023-01-04T05:39:34;101592.00;;;10.78;100.00
75933;BME280;64803;52.356;5.310;2023-01-04T05:42:00;101588.47;;;10.70;100.00
75933;BME280;64803;52.356;5.310;2023-01-04T05:44:44;101575.72;;;10.72;100.00
75933;BME280;64803;52.356;5.310;2023-01-04T05:47:10;101572.34;;;10.78;100.00
75933;BME280;64803;52.356;5.310;2023-01-04T05:49:36;101558.94;;;10.78;100.00
75933;BME280;64803;52.356;5.310;2023-01-04T05:52:02;101583.47;;;10.83;100.00
75933;BME280;64803;52.356;5.310;2023-01-04T05:54:28;101594.53;;;10.80;100.00
75933;BME280;64803;52.356;5.310;2023-01-04T05:56:54;101599.28;;;10.86;100.00
75933;BME280;64803;52.356;5.310;2023-01-04T05:59:20;101575.09;;;10.86;100.00
75933;BME280;64803;52.356;5.310;2023-01-04T06:01:46;101567.66;;;10.80;100.00
75933;BME280;64803;52.356;5.310;2023-01-04T06:04:12;101577.03;;;10.76;100.00
75933;BME280;64803;52.356;5.310;2023-01-04T06:06:38;101596.38;;;10.79;100.00
75933;BME280;64803;52.356;5.310;2023-01-04T06:09:04;101590.56;;;10.92;100.00
75933;BME280;64803;52.356;5.310;2023-01-04T06:11:30;101609.53;;;10.90;100.00
75933;BME280;64803;52.356;5.310;2023-01-04T06:13:56;101615.59;;;10.92;100.00
75933;BME280;64803;52.356;5.310;2023-01-04T06:16:22;101607.19;;;10.87;100.00
75933;BME280;64803;52.356;5.310;2023-01-04T06:18:48;101611.88;;;10.85;100.00
75933;BME280;64803;52.356;5.310;2023-01-04T06:21:14;101610.22;;;10.92;100.00
75933;BME280;64803;52.356;5.310;2023-01-04T06:23:40;101577.16;;;11.00;100.00
75933;BME280;64803;52.356;5.310;2023-01-04T06:26:06;101617.47;;;11.00;100.00
75933;BME280;64803;52.356;5.310;2023-01-04T06:28:32;101622.53;;;11.03;100.00
75933;BME280;64803;52.356;5.310;2023-01-04T06:31:03;101603.34;;;10.98;100.00
75933;BME280;64803;52.356;5.310;2023-01-04T06:33:29;101604.69;;;11.02;100.00
75933;BME280;64803;52.356;5.310;2023-01-04T06:35:55;101588.22;;;10.97;100.00
75933;BME280;64803;52.356;5.310;2023-01-04T06:38:21;101601.03;;;11.03;100.00
75933;BME280;64803;52.356;5.310;2023-01-04T06:40:47;101579.19;;;11.06;100.00
75933;BME280;64803;52.356;5.310;2023-01-04T06:43:13;101600.06;;;11.12;100.00
75933;BME280;64803;52.356;5.310;2023-01-04T06:45:40;101557.00;;;10.96;100.00
75933;BME280;64803;52.356;5.310;2023-01-04T06:48:07;101592.16;;;11.10;100.00
75933;BME280;64803;52.356;5.310;2023-01-04T06:50:33;101592.16;;;11.10;100.00
75933;BME280;64803;52.356;5.310;2023-01-04T06:52:59;101591.31;;;11.10;100.00
75933;BME280;64803;52.356;5.310;2023-01-04T06:55:25;101589.13;;;11.13;100.00
75933;BME280;64803;52.356;5.310;2023-01-04T06:57:52;101582.38;;;11.09;100.00
75933;BME280;64803;52.356;5.310;2023-01-04T07:00:18;101581.91;;;11.14;100.00
75933;BME280;64803;52.356;5.310;2023-01-04T07:02:44;101581.41;;;11.18;100.00
75933;BME280;64803;52.356;5.310;2023-01-04T07:05:10;101585.94;;;11.18;100.00
75933;BME280;64803;52.356;5.310;2023-01-04T07:07:36;101555.03;;;11.14;100.00
75933;BME280;64803;52.356;5.310;2023-01-04T07:10:02;101575.88;;;11.20;100.00
75933;BME280;64803;52.356;5.310;2023-01-04T07:12:28;101578.72;;;11.18;100.00
75933;BME280;64803;52.356;5.310;2023-01-04T07:14:54;101577.88;;;11.18;100.00
75933;BME280;64803;52.356;5.310;2023-01-04T07:17:20;101573.50;;;11.17;100.00
75933;BME280;64803;52.356;5.310;2023-01-04T07:19:46;101575.50;;;11.07;100.00
75933;BME280;64803;52.356;5.310;2023-01-04T07:22:13;101561.75;;;11.10;100.00
75933;BME280;64803;52.356;5.310;2023-01-04T07:24:39;101580.56;;;11.10;100.00
75933;BME280;64803;52.356;5.310;2023-01-04T07:27:05;101565.44;;;11.17;100.00
75933;BME280;64803;52.356;5.310;2023-01-04T07:29:31;101571.47;;;11.11;100.00
75933;BME280;64803;52.356;5.310;2023-01-04T07:31:57;101556.34;;;11.10;100.00
75933;BME280;64803;52.356;5.310;2023-01-04T07:34:24;101555.84;;;11.06;100.00
75933;BME280;64803;52.356;5.310;2023-01-04T07:36:50;101563.41;;;11.03;100.00
75933;BME280;64803;52.356;5.310;2023-01-04T07:39:17;101546.09;;;11.05;100.00
75933;BME280;64803;52.356;5.310;2023-01-04T07:41:44;101547.78;;;11.06;100.00
75933;BME280;64803;52.356;5.310;2023-01-04T07:44:11;101551.78;;;11.02;100.00
75933;BME280;64803;52.356;5.310;2023-01-04T07:46:37;101528.22;;;10.88;100.00
75933;BME280;64803;52.356;5.310;2023-01-04T07:49:04;101546.25;;;11.04;100.00
75933;BME280;64803;52.356;5.310;2023-01-04T07:51:31;101551.97;;;11.01;100.00
75933;BME280;64803;52.356;5.310;2023-01-04T07:53:58;101528.09;;;10.98;100.00
75933;BME280;64803;52.356;5.310;2023-01-04T07:56:24;101531.78;;;10.97;100.00
75933;BME280;64803;52.356;5.310;2023-01-04T07:58:50;101531.63;;;10.98;100.00
75933;BME280;64803;52.356;5.310;2023-01-04T08:01:22;101536.34;;;10.96;100.00
75933;BME280;64803;52.356;5.310;2023-01-04T08:03:48;101531.47;;;11.00;100.00
75933;BME280;64803;52.356;5.310;2023-01-04T08:06:15;101533.16;;;11.01;100.00
75933;BME280;64803;52.356;5.310;2023-01-04T08:08:42;101543.03;;;11.00;100.00
75933;BME280;64803;52.356;5.310;2023-01-04T08:11:11;101540.06;;;11.03;100.00
75933;BME280;64803;52.356;5.310;2023-01-04T08:13:39;101547.28;;;11.03;100.00
75933;BME280;64803;52.356;5.310;2023-01-04T08:16:06;101551.78;;;11.02;100.00
75933;BME280;64803;52.356;5.310;2023-01-04T08:18:32;101547.59;;;11.00;100.00
75933;BME280;64803;52.356;5.310;2023-01-04T08:21:02;101555.66;;;11.00;100.00
75933;BME280;64803;52.356;5.310;2023-01-04T08:23:29;101545.91;;;10.99;100.00
75933;BME280;64803;52.356;5.310;2023-01-04T08:25:55;101553.97;;;10.99;100.00
75933;BME280;64803;52.356;5.310;2023-01-04T08:28:21;101562.03;;;10.99;100.00
75933;BME280;64803;52.356;5.310;2023-01-04T08:30:47;101564.03;;;10.97;100.00
75933;BME280;64803;52.356;5.310;2023-01-04T08:33:15;101552.13;;;10.99;100.00
75933;BME280;64803;52.356;5.310;2023-01-04T08:35:41;101557.69;;;11.06;100.00
75933;BME280;64803;52.356;5.310;2023-01-04T08:38:07;101557.00;;;11.04;100.00
75933;BME280;64803;52.356;5.310;2023-01-04T08:40:33;101569.75;;;11.02;100.00
75933;BME280;64803;52.356;5.310;2023-01-04T08:42:59;101563.06;;;11.06;100.00
75933;BME280;64803;52.356;5.310;2023-01-04T08:45:25;101538.34;;;10.94;100.00
75933;BME280;64803;52.356;5.310;2023-01-04T08:47:52;101572.50;;;11.10;100.00
75933;BME280;64803;52.356;5.310;2023-01-04T08:50:18;101566.09;;;11.11;100.00
75933;BME280;64803;52.356;5.310;2023-01-04T08:52:45;101582.06;;;11.12;100.00
75933;BME280;64803;52.356;5.310;2023-01-04T08:55:11;101575.69;;;11.13;100.00
75933;BME280;64803;52.356;5.310;2023-01-04T08:57:37;101584.28;;;11.17;100.00
75933;BME280;64803;52.356;5.310;2023-01-04T09:00:03;101581.59;;;11.17;100.00
75933;BME280;64803;52.356;5.310;2023-01-04T09:02:29;101589.66;;;11.17;100.00
75933;BME280;64803;52.356;5.310;2023-01-04T09:04:55;101577.06;;;11.17;100.00
75933;BME280;64803;52.356;5.310;2023-01-04T09:07:27;101564.75;;;11.07;100.00
75933;BME280;64803;52.356;5.310;2023-01-04T09:09:53;101596.72;;;11.26;100.00
75933;BME280;64803;52.356;5.310;2023-01-04T09:12:19;101589.31;;;11.28;100.00
75933;BME280;64803;52.356;5.310;2023-01-04T09:14:45;101594.72;;;11.36;100.00
75933;BME280;64803;52.356;5.310;2023-01-04T09:17:11;101590.22;;;11.37;100.00
75933;BME280;64803;52.356;5.310;2023-01-04T09:19:37;101595.41;;;11.38;100.00
75933;BME280;64803;52.356;5.310;2023-01-04T09:22:03;101598.78;;;11.40;100.00
75933;BME280;64803;52.356;5.310;2023-01-04T09:24:31;101570.31;;;11.21;100.00
75933;BME280;64803;52.356;5.310;2023-01-04T09:26:57;101596.44;;;11.45;100.00
75933;BME280;64803;52.356;5.310;2023-01-04T09:29:24;101568.84;;;11.51;100.00
75933;BME280;64803;52.356;5.310;2023-01-04T09:31:53;101595.75;;;11.51;100.00
75933;BME280;64803;52.356;5.310;2023-01-04T09:34:19;101603.34;;;11.56;100.00
75933;BME280;64803;52.356;5.310;2023-01-04T09:36:46;101608.06;;;11.62;100.00
75933;BME280;64803;52.356;5.310;2023-01-04T09:39:13;101591.06;;;11.61;100.00
75933;BME280;64803;52.356;5.310;2023-01-04T09:44:36;101607.59;;;11.74;100.00
75933;BME280;64803;52.356;5.310;2023-01-04T09:47:12;101589.09;;;11.71;100.00
75933;BME280;64803;52.356;5.310;2023-01-04T09:52:10;101594.50;;;11.71;100.00
75933;BME280;64803;52.356;5.310;2023-01-04T09:54:44;101595.81;;;11.75;100.00
75933;BME280;64803;52.356;5.310;2023-01-04T09:57:21;101554.72;;;11.49;100.00
75933;BME280;64803;52.356;5.310;2023-01-04T09:59:50;101616.19;;;11.78;100.00
75933;BME280;64803;52.356;5.310;2023-01-04T10:02:28;101599.19;;;11.77;100.00
75933;BME280;64803;52.356;5.310;2023-01-04T10:04:59;101596.50;;;11.77;100.00
75933;BME280;64803;52.356;5.310;2023-01-04T10:07:30;101599.88;;;11.79;100.00
75933;BME280;64803;52.356;5.310;2023-01-04T10:09:57;101609.59;;;11.80;100.00
75933;BME280;64803;52.356;5.310;2023-01-04T10:12:37;101608.63;;;11.81;100.00
75933;BME280;64803;52.356;5.310;2023-01-04T10:18:07;101591.28;;;11.84;100.00
75933;BME280;64803;52.356;5.310;2023-01-04T10:23:54;101614.00;;;11.81;100.00
75933;BME280;64803;52.356;5.310;2023-01-04T10:27:10;101598.53;;;11.83;100.00
75933;BME280;64803;52.356;5.310;2023-01-04T10:29:32;101618.69;;;11.87;100.00
75933;BME280;64803;52.356;5.310;2023-01-04T10:32:23;101605.91;;;11.89;100.00
75933;BME280;64803;52.356;5.310;2023-01-04T10:34:55;101619.69;;;11.94;100.00
75933;BME280;64803;52.356;5.310;2023-01-04T10:37:23;101604.56;;;11.93;100.00
75933;BME280;64803;52.356;5.310;2023-01-04T10:39:53;101562.03;;;11.73;100.00
75933;BME280;64803;52.356;5.310;2023-01-04T10:42:30;101604.91;;;11.98;100.00
75933;BME280;64803;52.356;5.310;2023-01-04T10:45:20;101590.47;;;11.99;100.00
75933;BME280;64803;52.356;5.310;2023-01-04T10:48:07;101601.06;;;12.01;100.00
75933;BME280;64803;52.356;5.310;2023-01-04T10:50:50;101588.44;;;11.93;100.00
75933;BME280;64803;52.356;5.310;2023-01-04T11:01:01;101569.25;;;11.88;100.00
75933;BME280;64803;52.356;5.310;2023-01-04T11:06:09;101561.03;;;11.82;100.00
75933;BME280;64803;52.356;5.310;2023-01-04T11:08:50;101559.16;;;11.82;100.00
75933;BME280;64803;52.356;5.310;2023-01-04T11:11:31;101561.03;;;11.82;100.00
75933;BME280;64803;52.356;5.310;2023-01-04T11:13:59;101555.63;;;11.82;100.00
75933;BME280;64803;52.356;5.310;2023-01-04T11:16:26;101556.28;;;11.84;100.00
75933;BME280;64803;52.356;5.310;2023-01-04T11:18:52;101538.81;;;11.88;100.00
75933;BME280;64803;52.356;5.310;2023-01-04T11:21:22;101526.16;;;11.96;100.00
75933;BME280;64803;52.356;5.310;2023-01-04T11:23:51;101532.22;;;11.98;100.00
75933;BME280;64803;52.356;5.310;2023-01-04T11:26:19;101538.97;;;12.02;100.00
75933;BME280;64803;52.356;5.310;2023-01-04T11:28:53;101547.72;;;12.04;100.00
75933;BME280;64803;52.356;5.310;2023-01-04T11:31:45;101546.34;;;12.08;100.00
75933;BME280;64803;52.356;5.310;2023-01-04T11:34:13;101529.19;;;12.09;100.00
75933;BME280;64803;52.356;5.310;2023-01-04T11:36:41;101533.56;;;12.10;100.00
75933;BME280;64803;52.356;5.310;2023-01-04T11:39:24;101529.50;;;12.14;100.00
75933;BME280;64803;52.356;5.310;2023-01-04T11:41:57;101524.47;;;12.11;100.00
75933;BME280;64803;52.356;5.310;2023-01-04T11:44:24;101526.34;;;12.03;100.00
75933;BME280;64803;52.356;5.310;2023-01-04T11:49:34;101537.63;;;11.98;100.00
75933;BME280;64803;52.356;5.310;2023-01-04T11:52:02;101536.63;;;11.99;100.00
75933;BME280;64803;52.356;5.310;2023-01-04T11:54:28;101545.84;;;12.05;100.00
75933;BME280;64803;52.356;5.310;2023-01-04T11:59:23;101543.50;;;12.10;100.00
75933;BME280;64803;52.356;5.310;2023-01-04T12:01:50;101515.84;;;12.24;98.42
75933;BME280;64803;52.356;5.310;2023-01-04T12:04:22;101529.47;;;12.22;99.18
75933;BME280;64803;52.356;5.310;2023-01-04T12:06:49;101538.91;;;12.26;98.16
75933;BME280;64803;52.356;5.310;2023-01-04T12:09:17;101549.00;;;12.24;99.06
75933;BME280;64803;52.356;5.310;2023-01-04T12:11:48;101531.84;;;12.25;98.49
75933;BME280;64803;52.356;5.310;2023-01-04T12:19:21;101543.09;;;12.37;96.43
75933;BME280;64803;52.356;5.310;2023-01-04T12:22:52;101531.66;;;12.35;96.46
75933;BME280;64803;52.356;5.310;2023-01-04T12:25:00;101523.75;;;12.33;96.43
75933;BME280;64803;52.356;5.310;2023-01-04T12:27:26;101517.31;;;12.34;96.60
75933;BME280;64803;52.356;5.310;2023-01-04T12:30:04;101517.50;;;12.41;95.78
75933;BME280;64803;52.356;5.310;2023-01-04T12:34:56;101522.19;;;12.47;95.58
75933;BME280;64803;52.356;5.310;2023-01-04T12:45:42;101504.03;;;12.41;95.61
75933;BME280;64803;52.356;5.310;2023-01-04T12:48:32;101488.06;;;12.31;95.05
75933;BME280;64803;52.356;5.310;2023-01-04T12:51:20;101521.00;;;12.50;95.23
75933;BME280;64803;52.356;5.310;2023-01-04T12:56:16;101518.63;;;12.55;93.91
75933;BME280;64803;52.356;5.310;2023-01-04T12:59:06;101505.47;;;12.60;93.92
75933;BME280;64803;52.356;5.310;2023-01-04T13:01:33;101523.66;;;12.58;93.69
75933;BME280;64803;52.356;5.310;2023-01-04T13:04:29;101524.69;;;12.57;93.88
75933;BME280;64803;52.356;5.310;2023-01-04T13:07:09;101511.72;;;12.52;93.86
75933;BME280;64803;52.356;5.310;2023-01-04T13:09:49;101525.38;;;12.51;93.82
75933;BME280;64803;52.356;5.310;2023-01-04T13:15:23;101497.94;;;12.47;93.23
75933;BME280;64803;52.356;5.310;2023-01-04T13:17:56;101523.34;;;12.53;92.99
75933;BME280;64803;52.356;5.310;2023-01-04T13:20:22;101514.22;;;12.54;93.28
75933;BME280;64803;52.356;5.310;2023-01-04T13:22:56;101482.63;;;12.48;93.64
75933;BME280;64803;52.356;5.310;2023-01-04T13:25:23;101525.38;;;12.51;93.24
75933;BME280;64803;52.356;5.310;2023-01-04T13:28:15;101528.22;;;12.49;92.92
75933;BME280;64803;52.356;5.310;2023-01-04T13:30:41;101499.84;;;12.30;92.95
75933;BME280;64803;52.356;5.310;2023-01-04T13:33:09;101515.94;;;12.55;92.63
75933;BME280;64803;52.356;5.310;2023-01-04T13:35:36;101540.69;;;12.50;92.84
75933;BME280;64803;52.356;5.310;2023-01-04T13:38:02;101534.47;;;12.50;92.90
75933;BME280;64803;52.356;5.310;2023-01-04T13:40:32;101521.31;;;12.46;93.46
75933;BME280;64803;52.356;5.310;2023-01-04T13:43:07;101517.31;;;12.42;94.39
75933;BME280;64803;52.356;5.310;2023-01-04T13:45:52;101521.50;;;12.45;93.79
75933;BME280;64803;52.356;5.310;2023-01-04T13:48:24;101525.22;;;12.44;93.88
75933;BME280;64803;52.356;5.310;2023-01-04T13:51:12;101522.22;;;12.39;94.04
75933;BME280;64803;52.356;5.310;2023-01-04T13:53:40;101522.41;;;12.37;94.59
75933;BME280;64803;52.356;5.310;2023-01-04T13:56:13;101518.84;;;12.37;94.16
75933;BME280;64803;52.356;5.310;2023-01-04T13:58:42;101495.16;;;12.32;93.94
75933;BME280;64803;52.356;5.310;2023-01-04T14:01:37;101506.41;;;12.36;93.79
75933;BME280;64803;52.356;5.310;2023-01-04T14:06:46;101500.34;;;12.34;93.80
75933;BME280;64803;52.356;5.310;2023-01-04T14:09:19;101501.34;;;12.33;94.30
75933;BME280;64803;52.356;5.310;2023-01-04T14:11:54;101517.31;;;12.34;93.62
75933;BME280;64803;52.356;5.310;2023-01-04T14:20:43;101510.94;;;12.27;94.03
75933;BME280;64803;52.356;5.310;2023-01-04T14:30:52;101494.31;;;12.24;93.15
75933;BME280;64803;52.356;5.310;2023-01-04T14:33:26;101495.69;;;12.20;93.29
75933;BME280;64803;52.356;5.310;2023-01-04T14:36:15;101492.81;;;12.21;93.22